Time;durP1;ratioP1;P1;durP2;ratioP2;P2;SDS_P1;SDS_P2;PMS_P1;PMS_P2;Temp;Humidity;BMP_temperature;BMP_pressure;BME280_temperature;BME280_humidity;BME280_pressure;Samples;Min_cycle;Max_cycle;Signal;HPM_P1;HPM_P2
2022/06/03 00:02:18;;;;;;;2.28;0.88;;;13.90;99.90;;;-146.41;100.00;57768.22;4946460;28;20063;-68
2022/06/03 00:05:30;;;;;;;1.73;0.90;;;13.80;99.90;;;-146.41;100.00;57768.22;4993635;28;20050;-68
2022/06/03 00:08:28;;;;;;;3.92;1.15;;;13.80;99.90;;;-146.41;100.00;57768.22;5007752;28;20081;-68
2022/06/03 00:11:21;;;;;;;1.98;0.98;;;13.70;99.90;;;-146.41;100.00;57768.22;5007752;28;20129;-69
2022/06/03 00:14:09;;;;;;;2.30;0.98;;;13.80;99.90;;;-146.41;100.00;57768.22;4991523;28;20050;-68
2022/06/03 00:16:50;;;;;;;3.05;1.10;;;13.70;99.90;;;-146.41;100.00;57768.22;5011164;28;20132;-68
2022/06/03 00:20:09;;;;;;;2.70;1.10;;;13.70;99.90;;;-146.41;100.00;57768.22;4992951;28;20050;-68
2022/06/03 00:23:27;;;;;;;2.58;1.02;;;13.70;99.90;;;-146.41;100.00;57768.22;5009295;28;20054;-69
2022/06/03 00:26:13;;;;;;;1.67;0.80;;;13.60;99.90;;;-146.41;100.00;57768.22;4917572;28;20088;-70
2022/06/03 00:29:02;;;;;;;1.95;0.80;;;13.60;99.90;;;-146.41;100.00;57768.22;5008603;28;20203;-69
2022/06/03 00:31:57;;;;;;;2.47;0.80;;;13.60;99.90;;;-146.41;100.00;57768.22;5009117;28;20121;-70
2022/06/03 00:35:04;;;;;;;2.13;0.70;;;13.60;99.90;;;-146.41;100.00;57768.22;5012438;28;20161;-68
2022/06/03 00:37:55;;;;;;;2.50;0.70;;;13.50;99.90;;;-146.41;100.00;57768.22;5007834;28;20503;-69
2022/06/03 00:40:53;;;;;;;1.50;0.80;;;13.40;99.90;;;-146.41;100.00;57768.22;5004772;28;20077;-69
2022/06/03 00:43:46;;;;;;;1.58;0.80;;;13.40;99.90;;;-146.41;100.00;57768.22;5009138;28;20053;-68
2022/06/03 00:47:05;;;;;;;2.83;0.80;;;13.30;99.90;;;-146.41;100.00;57768.22;4986018;28;20835;-69
2022/06/03 00:49:52;;;;;;;1.38;0.63;;;13.30;99.90;;;-146.41;100.00;57768.22;5012038;28;20081;-69
2022/06/03 00:52:46;;;;;;;2.88;0.70;;;13.30;99.90;;;-146.41;100.00;57768.22;4997472;28;20550;-68
2022/06/03 00:55:27;;;;;;;1.60;0.80;;;13.20;99.90;;;-146.41;100.00;57768.22;5011054;28;20057;-69
2022/06/03 00:58:32;;;;;;;3.35;0.80;;;13.10;99.90;;;-146.41;100.00;57768.22;5010379;28;20621;-67
2022/06/03 01:01:16;;;;;;;1.88;0.77;;;13.00;99.90;;;-146.41;100.00;57768.22;4966912;28;20089;-69
2022/06/03 01:04:14;;;;;;;1.30;0.80;;;13.00;99.90;;;-146.41;100.00;57768.22;5009934;28;20041;-68
2022/06/03 01:07:07;;;;;;;2.05;0.95;;;12.90;99.90;;;-146.41;100.00;57768.22;5014755;28;20096;-68
2022/06/03 01:10:05;;;;;;;2.30;1.00;;;12.80;99.90;;;-146.41;100.00;57768.22;4992225;28;20396;-68
2022/06/03 01:12:53;;;;;;;2.65;0.90;;;12.70;99.90;;;-146.41;100.00;57768.22;4988408;28;20507;-68
2022/06/03 01:15:49;;;;;;;3.22;1.10;;;12.50;99.90;;;-146.41;100.00;57768.22;4994738;28;20042;-69
2022/06/03 01:18:42;;;;;;;2.85;1.15;;;12.40;99.90;;;-146.41;100.00;57768.22;5009074;28;20118;-69
2022/06/03 01:21:39;;;;;;;3.58;1.00;;;12.20;99.90;;;-146.41;100.00;57768.22;5009089;28;20065;-69
2022/06/03 01:24:21;;;;;;;2.47;0.95;;;12.20;99.90;;;-146.41;100.00;57768.22;5011046;28;20164;-68
2022/06/03 01:27:27;;;;;;;2.42;0.90;;;12.20;99.90;;;-146.41;100.00;57768.22;5014249;28;20077;-68
2022/06/03 01:30:48;;;;;;;2.95;1.02;;;12.10;99.90;;;-146.41;100.00;57768.22;4997820;28;20052;-68
2022/06/03 01:33:55;;;;;;;3.95;1.00;;;12.00;99.90;;;-146.41;100.00;57768.22;4992863;28;20133;-69
2022/06/03 01:36:49;;;;;;;1.83;1.17;;;11.90;99.90;;;-146.41;100.00;57768.22;5005908;28;20069;-68
2022/06/03 01:39:32;;;;;;;1.65;1.10;;;11.80;99.90;;;-146.41;100.00;57768.22;4983100;28;20058;-69
2022/06/03 01:42:43;;;;;;;3.77;1.40;;;11.70;99.90;;;-146.41;100.00;57768.22;5010814;28;20046;-68
2022/06/03 01:45:13;;;;;;;3.88;0.95;;;11.70;99.90;;;-146.41;100.00;57768.22;4999063;28;20084;-69
2022/06/03 01:48:11;;;;;;;2.13;1.13;;;11.60;99.90;;;-146.41;100.00;57768.22;5008136;28;20066;-69
2022/06/03 01:51:03;;;;;;;2.05;1.05;;;11.60;99.90;;;-146.41;100.00;57768.22;4992995;28;20520;-68
2022/06/03 01:54:09;;;;;;;2.08;1.17;;;11.60;99.90;;;-146.41;100.00;57768.22;5008836;28;20096;-69
2022/06/03 01:57:33;;;;;;;4.60;1.15;;;11.70;99.90;;;-146.41;100.00;57768.22;5011027;28;20115;-68
2022/06/03 02:00:36;;;;;;;2.90;1.10;;;11.60;99.90;;;-146.41;100.00;57768.22;5012648;28;20108;-69
2022/06/03 02:03:53;;;;;;;2.22;1.00;;;11.60;99.90;;;-146.41;100.00;57768.22;4992709;28;20545;-68
2022/06/03 02:06:39;;;;;;;3.25;1.10;;;11.60;99.90;;;-146.41;100.00;57768.22;4882319;29;20626;-68
2022/06/03 02:09:34;;;;;;;4.22;1.20;;;11.60;99.90;;;-146.41;100.00;57768.22;4881401;29;20140;-68
2022/06/03 02:12:47;;;;;;;2.63;1.00;;;11.50;99.90;;;-146.41;100.00;57768.22;4997810;28;20556;-69
2022/06/03 02:16:00;;;;;;;3.05;1.20;;;11.40;99.90;;;-146.41;100.00;57768.22;5013928;28;20455;-68
2022/06/03 02:18:36;;;;;;;2.10;1.20;;;11.40;99.90;;;-146.41;100.00;57768.22;5003807;28;20052;-68
2022/06/03 02:21:44;;;;;;;3.15;1.08;;;11.30;99.90;;;-146.41;100.00;57768.22;5005969;28;20144;-69
2022/06/03 02:24:37;;;;;;;2.35;0.90;;;11.40;99.90;;;-146.41;100.00;57768.22;4990913;28;20054;-67
2022/06/03 02:27:45;;;;;;;2.38;1.38;;;11.30;99.90;;;-146.41;100.00;57768.22;4991507;28;20088;-68
2022/06/03 02:30:49;;;;;;;2.50;1.05;;;11.20;99.90;;;-146.41;100.00;57768.22;5010761;28;20514;-67
2022/06/03 02:33:41;;;;;;;3.08;1.15;;;11.20;99.90;;;-146.41;100.00;57768.22;5010014;28;20117;-69
2022/06/03 02:36:54;;;;;;;3.35;1.20;;;11.20;99.90;;;-146.41;100.00;57768.22;5009190;28;20046;-68
2022/06/03 02:39:59;;;;;;;3.08;0.93;;;11.10;99.90;;;-146.41;100.00;57768.22;5006897;28;20081;-68
2022/06/03 02:43:06;;;;;;;3.58;1.15;;;11.20;99.90;;;-146.41;100.00;57768.22;5004582;28;20604;-67
2022/06/03 02:45:52;;;;;;;2.50;1.13;;;11.20;99.90;;;-146.41;100.00;57768.22;5013933;28;20050;-68
2022/06/03 02:48:37;;;;;;;1.75;1.13;;;11.20;99.90;;;-146.41;100.00;57768.22;5008313;28;20054;-68
2022/06/03 02:51:35;;;;;;;3.83;1.17;;;11.20;99.90;;;-146.41;100.00;57768.22;5006929;28;20081;-68
2022/06/03 02:54:17;;;;;;;2.55;1.02;;;11.30;99.90;;;-146.41;100.00;57768.22;5008907;28;20132;-67
2022/06/03 02:56:58;;;;;;;1.98;0.90;;;11.30;99.90;;;-146.41;100.00;57768.22;5013138;28;20089;-67
2022/06/03 03:00:13;;;;;;;2.00;1.27;;;11.40;99.90;;;-146.41;100.00;57768.22;5006663;28;20069;-67
2022/06/03 03:03:45;;;;;;;3.08;1.02;;;11.50;99.90;;;-146.41;100.00;57768.22;5016105;28;20143;-67
2022/06/03 03:06:43;;;;;;;3.97;0.90;;;11.50;99.90;;;-146.41;100.00;57768.22;4974982;28;20084;-67
2022/06/03 03:09:24;;;;;;;1.63;1.00;;;11.50;99.90;;;-146.41;100.00;57768.22;5011665;28;20141;-68
2022/06/03 03:12:34;;;;;;;2.33;1.10;;;11.60;99.90;;;-146.41;100.00;57768.22;5009959;28;20406;-67
2022/06/03 03:15:42;;;;;;;1.77;0.95;;;11.60;99.90;;;-146.41;100.00;57768.22;4980633;28;20113;-67
2022/06/03 03:18:46;;;;;;;2.50;1.00;;;11.50;99.90;;;-146.41;100.00;57768.22;4958598;28;20127;-67
2022/06/03 03:21:41;;;;;;;1.90;0.90;;;11.50;99.90;;;-146.41;100.00;57768.22;4994829;28;20049;-69
2022/06/03 03:24:34;;;;;;;2.33;1.10;;;11.50;99.90;;;-146.41;100.00;57768.22;5010612;28;20133;-68
2022/06/03 03:27:43;;;;;;;2.03;1.20;;;11.40;99.90;;;-146.41;100.00;57768.22;5015964;28;20406;-68
2022/06/03 03:30:13;;;;;;;2.25;1.05;;;11.40;99.90;;;-146.41;100.00;57768.22;5012263;28;20160;-68
2022/06/03 03:33:23;;;;;;;3.70;0.90;;;11.40;99.90;;;-146.41;100.00;57768.22;4994389;28;20149;-68
2022/06/03 03:36:28;;;;;;;3.55;1.23;;;11.40;99.90;;;-146.41;100.00;57768.22;4991368;28;20509;-67
2022/06/03 03:39:39;;;;;;;3.50;1.20;;;11.30;99.90;;;-146.41;100.00;57768.22;5013941;28;20134;-68
2022/06/03 03:42:24;;;;;;;2.33;1.08;;;11.20;99.90;;;-146.41;100.00;57768.22;4951977;28;20129;-69
2022/06/03 03:45:57;;;;;;;1.80;1.00;;;11.20;99.90;;;-146.41;100.00;57768.22;4998579;28;20073;-68
2022/06/03 03:49:19;;;;;;;1.75;0.95;;;11.30;99.90;;;-146.41;100.00;57768.22;4993321;28;20176;-67
2022/06/03 03:52:12;;;;;;;5.32;1.20;;;11.50;99.90;;;-146.41;100.00;57768.22;5011148;28;20100;-68
2022/06/03 03:55:16;;;;;;;2.70;1.55;;;11.60;99.90;;;-146.41;100.00;57768.22;5000834;28;20081;-68
2022/06/03 03:58:25;;;;;;;;;;;11.60;99.90;;;-146.41;100.00;57768.22;5010177;28;20136;-68
2022/06/03 04:01:16;;;;;;;2.88;1.02;;;11.70;99.90;;;-146.41;100.00;57768.22;4892880;29;20033;-67
2022/06/03 04:04:05;;;;;;;2.25;1.00;;;11.80;99.90;;;-146.41;100.00;57768.22;4994317;28;20100;-68
2022/06/03 04:06:39;;;;;;;8.98;1.30;;;11.90;99.90;;;-146.41;100.00;57768.22;5013016;28;20095;-68
2022/06/03 04:09:19;;;;;;;3.33;0.90;;;11.90;99.90;;;-146.41;100.00;57768.22;5013474;28;20602;-68
2022/06/03 04:12:05;;;;;;;1.92;1.00;;;12.00;99.90;;;-146.41;100.00;57768.22;4992782;28;20084;-69
2022/06/03 04:14:53;;;;;;;3.58;0.88;;;12.10;99.90;;;-146.41;100.00;57768.22;4992076;28;20092;-67
2022/06/03 04:18:01;;;;;;;2.38;1.08;;;12.20;99.90;;;-146.41;100.00;57768.22;5010773;28;20054;-69
2022/06/03 04:21:34;;;;;;;1.63;0.80;;;12.30;99.90;;;-146.41;100.00;57768.22;5012868;28;20085;-69
2022/06/03 04:24:39;;;;;;;2.45;0.70;;;12.50;99.90;;;-146.41;100.00;57768.22;5016026;28;20153;-68
2022/06/03 04:27:24;;;;;;;2.65;0.82;;;12.70;99.90;;;-146.41;100.00;57768.22;5006324;28;20575;-68
2022/06/03 04:30:34;;;;;;;2.00;1.00;;;12.70;99.90;;;-146.41;100.00;57768.22;5013294;28;20843;-69
2022/06/03 04:33:29;;;;;;;3.17;1.08;;;12.80;99.90;;;-146.41;100.00;57768.22;5011081;28;20111;-68
2022/06/03 04:36:36;;;;;;;1.88;0.95;;;12.90;99.90;;;-146.41;100.00;57768.22;5013978;28;20297;-67
2022/06/03 04:39:12;;;;;;;1.63;0.90;;;13.00;99.90;;;-146.41;100.00;57768.22;5013003;28;20132;-67
2022/06/03 04:42:09;;;;;;;4.80;1.20;;;13.00;99.90;;;-146.41;100.00;57768.22;5011231;28;20116;-67
2022/06/03 04:44:57;;;;;;;2.38;0.80;;;13.00;99.90;;;-146.41;100.00;57768.22;5013761;28;20101;-68
2022/06/03 04:47:27;;;;;;;2.80;0.80;;;13.10;99.90;;;-146.41;100.00;57768.22;5010213;28;20134;-68
2022/06/03 04:50:32;;;;;;;2.08;0.85;;;13.20;99.90;;;-146.41;100.00;57768.22;5005744;28;20070;-68
2022/06/03 04:53:49;;;;;;;3.70;1.08;;;13.30;99.90;;;-146.41;100.00;57768.22;5006086;28;20062;-68
2022/06/03 04:57:07;;;;;;;2.08;0.95;;;13.40;99.90;;;-146.41;100.00;57768.22;4990192;28;20078;-67
2022/06/03 05:00:08;;;;;;;1.63;0.80;;;13.50;99.90;;;-146.41;100.00;57768.22;4921443;29;20047;-67
2022/06/03 05:03:28;;;;;;;4.53;0.73;;;13.60;99.90;;;-146.41;100.00;57768.22;5013981;28;20132;-67
2022/06/03 05:06:54;;;;;;;1.75;0.80;;;13.70;99.90;;;-146.41;100.00;57768.22;5012951;28;20049;-68
2022/06/03 05:10:10;;;;;;;3.63;0.90;;;13.80;99.90;;;-146.41;100.00;57768.22;4997644;28;20046;-67
2022/06/03 05:12:58;;;;;;;5.22;1.08;;;13.90;99.90;;;-146.41;100.00;57768.22;5010650;28;20365;-67
2022/06/03 05:15:59;;;;;;;3.30;0.75;;;14.10;99.90;;;-146.41;100.00;57768.22;5017570;28;20083;-67
2022/06/03 05:18:50;;;;;;;3.78;0.98;;;14.10;99.90;;;-146.41;100.00;57768.22;5011060;28;20133;-67
2022/06/03 05:21:55;;;;;;;3.97;0.70;;;14.10;99.90;;;-146.41;100.00;57768.22;5010976;28;20108;-68
2022/06/03 05:25:28;;;;;;;2.35;1.00;;;14.10;99.90;;;-146.41;100.00;57768.22;5012470;28;20338;-68
2022/06/03 05:28:51;;;;;;;2.50;0.90;;;14.10;99.90;;;-146.41;100.00;57768.22;4889995;29;20512;-67
2022/06/03 05:32:11;;;;;;;3.35;1.00;;;14.30;99.90;;;-146.41;100.00;57768.22;5009846;28;20072;-67
2022/06/03 05:35:28;;;;;;;3.75;0.80;;;14.50;99.90;;;-146.41;100.00;57768.22;5015330;28;20054;-69
2022/06/03 05:38:13;;;;;;;3.58;1.02;;;14.70;99.90;;;-146.41;100.00;57768.22;5012865;28;20118;-67
2022/06/03 05:40:55;;;;;;;3.35;0.93;;;14.90;99.90;;;-146.41;100.00;57768.22;4998676;28;20065;-68
2022/06/03 05:43:43;;;;;;;6.60;1.40;;;15.10;99.90;;;-146.41;100.00;57768.22;5009830;28;20141;-67
2022/06/03 05:46:45;;;;;;;3.72;1.02;;;15.10;99.90;;;-146.41;100.00;57768.22;5016284;28;20092;-67
2022/06/03 05:49:42;;;;;;;3.92;0.80;;;15.20;99.90;;;-146.41;100.00;57768.22;4999215;28;20077;-68
2022/06/03 05:52:29;;;;;;;2.00;0.90;;;15.30;99.90;;;-146.41;100.00;57768.22;4998362;28;20149;-67
2022/06/03 05:55:30;;;;;;;2.60;0.85;;;15.30;99.90;;;-146.41;100.00;57768.22;4998838;28;20078;-67
2022/06/03 05:58:29;;;;;;;1.63;0.85;;;15.40;99.90;;;-146.41;100.00;57768.22;4996552;28;20172;-68
2022/06/03 06:01:10;;;;;;;5.30;0.77;;;15.60;99.90;;;-146.41;100.00;57768.22;5010460;28;20129;-68
2022/06/03 06:03:57;;;;;;;2.28;0.73;;;15.70;99.90;;;-146.41;100.00;57768.22;5008852;28;20502;-68
2022/06/03 06:06:37;;;;;;;1.50;0.80;;;15.80;99.90;;;-146.41;100.00;57768.22;4991136;28;20050;-68
2022/06/03 06:09:45;;;;;;;1.98;0.75;;;16.00;99.90;;;-146.41;100.00;57768.22;4994158;28;20133;-69
2022/06/03 06:12:28;;;;;;;2.95;0.85;;;16.20;99.90;;;-146.41;100.00;57768.22;5000417;28;20053;-69
2022/06/03 06:15:21;;;;;;;2.90;0.80;;;16.40;99.90;;;-146.41;100.00;57768.22;5014927;28;20810;-69
2022/06/03 06:18:13;;;;;;;1.00;0.60;;;16.40;99.90;;;-146.41;100.00;57768.22;4995349;28;20125;-68
2022/06/03 06:20:53;;;;;;;3.08;0.90;;;16.50;99.90;;;-146.41;100.00;57768.22;4996443;28;20137;-68
2022/06/03 06:23:38;;;;;;;4.30;0.70;;;16.60;99.90;;;-146.41;100.00;57768.22;5012081;28;20050;-68
2022/06/03 06:26:29;;;;;;;1.00;0.70;;;16.60;99.90;;;-146.41;100.00;57768.22;4997338;28;20168;-67
2022/06/03 06:29:16;;;;;;;3.75;0.90;;;16.80;99.90;;;-146.41;100.00;57768.22;5013216;28;20143;-68
2022/06/03 06:32:07;;;;;;;2.10;0.70;;;16.90;99.90;;;-146.41;100.00;57768.22;5011299;28;20460;-67
2022/06/03 06:34:59;;;;;;;2.53;0.55;;;17.00;99.90;;;-146.41;100.00;57768.22;5012621;28;20050;-68
2022/06/03 06:38:01;;;;;;;1.98;0.70;;;17.00;99.90;;;-146.41;100.00;57768.22;5006021;28;20050;-68
2022/06/03 06:41:12;;;;;;;3.35;0.73;;;17.20;99.90;;;-146.41;100.00;57768.22;4992775;28;20108;-67
2022/06/03 06:43:55;;;;;;;1.55;0.88;;;17.40;99.90;;;-146.41;100.00;57768.22;5015840;28;20458;-68
2022/06/03 06:47:01;;;;;;;2.47;0.80;;;17.50;99.90;;;-146.41;100.00;57768.22;4997007;28;20430;-68
2022/06/03 06:49:41;;;;;;;3.22;0.93;;;17.40;99.90;;;-146.41;100.00;57768.22;5014789;28;20077;-68
2022/06/03 06:52:18;;;;;;;1.55;0.70;;;17.50;99.90;;;-146.41;100.00;57768.22;5013142;28;20053;-68
2022/06/03 06:55:29;;;;;;;2.10;0.70;;;17.60;99.90;;;-146.41;100.00;57768.22;5008232;28;20058;-68
2022/06/03 06:58:03;;;;;;;2.72;0.80;;;17.70;99.90;;;-146.41;100.00;57768.22;4995874;28;20457;-68
2022/06/03 07:00:36;;;;;;;1.95;0.60;;;17.80;99.90;;;-146.41;100.00;57768.22;5012215;28;20235;-68
2022/06/03 07:03:28;;;;;;;1.80;0.68;;;18.00;99.90;;;-146.41;100.00;57768.22;4993844;28;20116;-67
2022/06/03 07:06:31;;;;;;;2.28;0.80;;;18.20;99.90;;;-146.41;100.00;57768.22;5009677;28;20077;-68
2022/06/03 07:09:39;;;;;;;2.30;0.80;;;18.20;99.90;;;-146.41;100.00;57768.22;5006168;28;20041;-67
2022/06/03 07:12:14;;;;;;;1.55;0.63;;;18.20;99.90;;;-146.41;100.00;57768.22;4990633;28;20046;-69
2022/06/03 07:15:07;;;;;;;3.05;0.60;;;18.30;99.90;;;-146.41;100.00;57768.22;4989712;28;20504;-67
2022/06/03 07:21:23;;;;;;;1.48;0.60;;;18.60;99.90;;;-146.41;100.00;57768.22;5013654;28;20050;-68
2022/06/03 07:24:03;;;;;;;3.28;0.60;;;18.60;99.90;;;-146.41;100.00;57768.22;5014875;28;20151;-68
2022/06/03 07:26:39;;;;;;;3.35;0.60;;;18.70;99.90;;;-146.41;100.00;57768.22;4995234;28;20074;-68
2022/06/03 07:29:25;;;;;;;1.27;0.75;;;18.80;99.90;;;-146.41;100.00;57768.22;4986415;28;20052;-69
2022/06/03 07:32:05;;;;;;;3.53;0.93;;;19.00;99.90;;;-146.41;100.00;57768.22;4992972;28;20129;-68
2022/06/03 07:34:50;;;;;;;1.50;0.60;;;19.10;99.90;;;-146.41;100.00;57768.22;5012778;28;20053;-69
2022/06/03 07:37:39;;;;;;;3.53;0.70;;;19.30;99.90;;;-146.41;100.00;57768.22;5010474;28;20054;-68
2022/06/03 07:40:24;;;;;;;1.85;0.70;;;19.30;99.90;;;-146.41;100.00;57768.22;4985597;28;20137;-68
2022/06/03 07:43:17;;;;;;;4.03;0.70;;;19.40;99.90;;;-146.41;100.00;57768.22;4989088;28;20176;-67
2022/06/03 07:46:19;;;;;;;1.88;0.60;;;19.70;99.90;;;-146.41;100.00;57768.22;5004744;28;20057;-69
2022/06/03 07:48:47;;;;;;;1.00;0.60;;;20.00;99.90;;;-146.41;100.00;57768.22;5006986;28;20134;-69
2022/06/03 07:51:37;;;;;;;3.30;0.77;;;20.00;99.90;;;-146.41;100.00;57768.22;4988275;28;20089;-70
2022/06/03 07:54:12;;;;;;;2.90;0.63;;;20.20;99.90;;;-146.41;100.00;57768.22;4990662;28;20075;-69
2022/06/03 07:56:40;;;;;;;5.60;0.68;;;20.30;99.90;;;-146.41;100.00;57768.22;4989335;28;20163;-70
2022/06/03 07:59:17;;;;;;;2.03;0.65;;;20.40;99.90;;;-146.41;100.00;57768.22;4989802;28;20140;-68
2022/06/03 08:02:06;;;;;;;1.83;0.70;;;20.50;99.90;;;-146.41;100.00;57768.22;4986723;28;20152;-67
2022/06/03 08:04:36;;;;;;;6.53;0.70;;;20.50;99.90;;;-146.41;100.00;57768.22;5008638;28;20500;-67
2022/06/03 08:12:58;;;;;;;1.98;0.63;;;20.80;99.90;;;-146.41;100.00;57768.22;5013312;28;20717;-67
2022/06/03 08:15:38;;;;;;;3.67;0.65;;;20.90;99.90;;;-146.41;100.00;57768.22;4992136;28;20161;-68
2022/06/03 08:18:08;;;;;;;1.17;0.60;;;21.00;99.90;;;-146.41;100.00;57768.22;5008564;28;20740;-67
2022/06/03 08:21:02;;;;;;;2.63;0.60;;;21.00;99.90;;;-146.41;100.00;57768.22;5010507;28;20050;-67
2022/06/03 08:23:33;;;;;;;5.43;1.05;;;21.10;99.90;;;-146.41;100.00;57768.22;5006637;28;20427;-67
2022/06/03 08:26:07;;;;;;;3.15;0.60;;;21.30;99.70;;;-146.41;100.00;57768.22;5003506;28;20218;-67
2022/06/03 08:28:38;;;;;;;6.85;0.80;;;21.40;99.90;;;-146.41;100.00;57768.22;4992122;28;20136;-67
2022/06/03 08:31:07;;;;;;;1.70;0.52;;;21.50;99.10;;;-146.41;100.00;57768.22;4994893;28;20082;-68
2022/06/03 08:33:47;;;;;;;2.97;0.70;;;21.60;99.50;;;-146.41;100.00;57768.22;4994773;28;20046;-69
2022/06/03 08:36:20;;;;;;;4.15;0.80;;;21.70;99.50;;;-146.41;100.00;57768.22;5007212;28;20458;-68
2022/06/03 08:38:56;;;;;;;4.00;0.70;;;21.70;98.90;;;-146.41;100.00;57768.22;4992874;28;20471;-68
2022/06/03 08:41:52;;;;;;;1.73;0.73;;;21.90;98.40;;;-146.41;100.00;57768.22;5006793;28;20128;-68
2022/06/03 08:44:44;;;;;;;3.42;0.80;;;22.00;98.80;;;-146.41;100.00;57768.22;4995931;28;20129;-69
2022/06/03 08:47:52;;;;;;;2.92;0.80;;;22.00;98.20;;;-146.41;100.00;57768.22;5006002;28;20049;-68
2022/06/03 08:51:21;;;;;;;2.58;0.70;;;22.60;98.40;;;-146.41;100.00;57768.22;4981346;28;20084;-68
2022/06/03 08:54:01;;;;;;;2.88;0.80;;;22.90;98.00;;;-146.41;100.00;57768.22;4897031;29;20052;-67
2022/06/03 08:56:40;;;;;;;2.33;0.70;;;23.00;96.90;;;-146.41;100.00;57768.22;4992709;28;20057;-68
2022/06/03 08:59:13;;;;;;;2.13;0.60;;;23.20;96.90;;;-146.41;100.00;57768.22;4990920;28;20078;-68
2022/06/03 09:01:55;;;;;;;2.88;0.70;;;23.50;96.80;;;-146.41;100.00;57768.22;5013896;28;20426;-68
2022/06/03 09:04:22;;;;;;;1.52;0.70;;;23.80;96.30;;;-146.41;100.00;57768.22;5017718;28;20092;-67
2022/06/03 09:07:51;;;;;;;2.45;0.90;;;24.00;96.00;;;-146.41;100.00;57768.22;5012796;28;20225;-68
2022/06/03 09:10:32;;;;;;;2.70;1.05;;;24.40;95.60;;;-146.41;100.00;57768.22;4994861;28;20125;-67
2022/06/03 09:13:09;;;;;;;1.20;0.70;;;24.70;95.60;;;-146.41;100.00;57768.22;5000171;28;20119;-66
2022/06/03 09:15:43;;;;;;;3.38;0.60;;;25.30;94.90;;;-146.41;100.00;57768.22;4996308;28;20141;-67
2022/06/03 09:18:19;;;;;;;3.53;0.60;;;25.60;94.80;;;-146.41;100.00;57768.22;5006495;28;20705;-68
2022/06/03 09:20:55;;;;;;;1.87;0.60;;;25.70;93.70;;;-146.41;100.00;57768.22;4980712;28;20054;-67
2022/06/03 09:23:23;;;;;;;;;;;25.60;93.50;;;-146.41;100.00;57768.22;5017202;28;20583;-67
2022/06/03 09:25:55;;;;;;;1.70;0.60;;;25.20;93.20;;;-146.41;100.00;57768.22;5002008;28;19929;-68
2022/06/03 09:28:27;;;;;;;2.80;0.57;;;25.60;93.60;;;-146.41;100.00;57768.22;5012125;28;20132;-69
2022/06/03 09:30:58;;;;;;;4.60;0.70;;;25.90;93.30;;;-146.41;100.00;57768.22;4997509;28;20519;-67
2022/06/03 09:33:27;;;;;;;2.60;0.80;;;26.20;92.40;;;-146.41;100.00;57768.22;4995568;28;20423;-68
2022/06/03 09:35:59;;;;;;;1.67;0.70;;;26.60;92.50;;;-146.41;100.00;57768.22;4993274;28;20096;-67
2022/06/03 09:38:37;;;;;;;;;;;26.70;91.80;;;-146.41;100.00;57768.22;5013963;28;20744;-68
2022/06/03 09:41:04;;;;;;;3.78;0.75;;;26.30;91.90;;;-146.41;100.00;57768.22;4994914;28;20008;-68
2022/06/03 09:43:43;;;;;;;3.45;0.80;;;26.40;92.00;;;-146.41;100.00;57768.22;4998671;28;20076;-67
2022/06/03 09:46:12;;;;;;;2.05;0.70;;;26.40;92.30;;;-146.41;100.00;57768.22;4996672;28;20050;-66
2022/06/03 09:48:41;;;;;;;2.47;0.68;;;26.30;92.00;;;-146.41;100.00;57768.22;4995573;28;20060;-69
2022/06/03 09:51:12;;;;;;;1.58;0.75;;;26.20;92.40;;;-146.41;100.00;57768.22;4993615;28;20064;-67
2022/06/03 09:53:42;;;;;;;2.20;0.70;;;26.20;92.20;;;-146.41;100.00;57768.22;4985790;28;20129;-69
2022/06/03 09:56:30;;;;;;;2.83;0.80;;;25.90;92.10;;;-146.41;100.00;57768.22;4994384;28;20088;-67
2022/06/03 09:59:01;;;;;;;3.72;0.95;;;26.00;92.50;;;-146.41;100.00;57768.22;4992372;28;20530;-66
2022/06/03 10:01:29;;;;;;;1.63;0.63;;;25.90;93.20;;;-146.41;100.00;57768.22;4991558;28;20050;-67
2022/06/03 10:04:06;;;;;;;2.72;1.00;;;25.90;92.80;;;-146.41;100.00;57768.22;4993753;28;20160;-67
2022/06/03 10:06:43;;;;;;;4.63;1.00;;;25.80;92.50;;;-146.41;100.00;57768.22;4991719;28;20125;-68
2022/06/03 10:14:44;;;;;;;5.25;1.00;;;26.40;92.60;;;-146.41;100.00;57768.22;5006865;28;20050;-68
2022/06/03 10:17:12;;;;;;;2.05;0.50;;;26.40;92.00;;;-146.41;100.00;57768.22;4989790;28;20533;-68
2022/06/03 10:19:39;;;;;;;3.58;0.95;;;26.80;92.10;;;-146.41;100.00;57768.22;4991988;28;20054;-69
2022/06/03 10:22:09;;;;;;;4.15;0.90;;;26.80;91.60;;;-146.41;100.00;57768.22;5007528;28;20129;-68
2022/06/03 10:24:36;;;;;;;3.20;0.80;;;26.70;91.90;;;-146.41;100.00;57768.22;5004413;28;20614;-68
2022/06/03 10:27:06;;;;;;;1.77;0.73;;;26.70;91.60;;;-146.41;100.00;57768.22;5007229;28;20133;-69
2022/06/03 10:29:47;;;;;;;4.15;0.90;;;27.10;91.70;;;-146.41;100.00;57768.22;5005144;28;20516;-68
2022/06/03 10:32:17;;;;;;;;;;;27.50;91.70;;;-146.41;100.00;57768.22;5011348;28;20149;-69
2022/06/03 10:34:45;;;;;;;4.22;0.70;;;28.00;90.90;;;-146.41;100.00;57768.22;4986288;28;20011;-69
2022/06/03 10:37:20;;;;;;;3.28;0.93;;;28.50;90.80;;;-146.41;100.00;57768.22;5006347;28;20137;-69
2022/06/03 10:39:47;;;;;;;2.22;0.52;;;28.90;90.30;;;-146.41;100.00;57768.22;5009394;28;20456;-68
2022/06/03 10:42:19;;;;;;;2.40;0.85;;;29.20;90.30;;;-146.41;100.00;57768.22;5002575;28;20164;-72
2022/06/03 10:44:50;;;;;;;1.90;0.77;;;29.70;89.20;;;-146.41;100.00;57768.22;5009025;28;20077;-72
2022/06/03 10:47:31;;;;;;;1.63;0.80;;;29.60;88.40;;;-146.41;100.00;57768.22;4994396;28;20069;-74
2022/06/03 10:50:09;;;;;;;2.95;0.90;;;29.30;88.40;;;-146.41;100.00;57768.22;5002863;28;20125;-72
2022/06/03 11:01:29;;;;;;;1.83;0.70;;;29.40;88.30;;;-146.41;100.00;57768.22;5008946;28;20053;-70
2022/06/03 11:03:59;;;;;;;1.65;0.68;;;29.50;87.30;;;-146.41;100.00;57768.22;5007911;28;20419;-71
2022/06/03 11:06:37;;;;;;;3.95;1.02;;;29.60;87.80;;;-146.41;100.00;57768.22;5010148;28;20403;-71
2022/06/03 11:09:08;;;;;;;3.30;0.88;;;29.80;87.10;;;-146.41;100.00;57768.22;5006622;28;20562;-71
2022/06/03 11:11:43;;;;;;;2.20;1.02;;;29.50;86.80;;;-146.41;100.00;57768.22;5004743;28;20107;-70
2022/06/03 11:14:25;;;;;;;1.45;0.70;;;29.50;88.10;;;-146.41;100.00;57768.22;5009409;28;20218;-71
2022/06/03 11:17:11;;;;;;;2.53;0.82;;;29.70;87.50;;;-146.41;100.00;57768.22;5006955;28;20152;-70
2022/06/03 11:19:44;;;;;;;7.07;0.90;;;29.80;86.50;;;-146.41;100.00;57768.22;5002125;28;20495;-70
2022/06/03 11:22:30;;;;;;;2.97;0.98;;;29.10;86.20;;;-146.41;100.00;57768.22;5005136;28;20133;-72
2022/06/03 11:25:21;;;;;;;1.95;0.80;;;29.50;86.10;;;-146.41;100.00;57768.22;5007334;28;20133;-70
2022/06/03 11:28:08;;;;;;;3.83;0.88;;;29.90;86.20;;;-146.41;100.00;57768.22;4985098;28;20641;-70
2022/06/03 11:30:48;;;;;;;3.17;0.93;;;29.70;85.60;;;-146.41;100.00;57768.22;4992684;28;20560;-71
2022/06/03 11:33:24;;;;;;;1.73;0.75;;;29.80;85.40;;;-146.41;100.00;57768.22;4993095;28;20153;-72
2022/06/03 11:35:57;;;;;;;3.88;1.02;;;30.10;86.00;;;-146.41;100.00;57768.22;5008295;28;20172;-71
2022/06/03 11:38:52;;;;;;;2.55;0.90;;;29.80;84.50;;;-146.41;100.00;57768.22;5011678;28;20418;-72
2022/06/03 11:41:26;;;;;;;4.15;1.00;;;30.30;86.10;;;-146.41;100.00;57768.22;4987200;28;20081;-70
2022/06/03 11:44:21;;;;;;;4.80;1.10;;;30.70;85.40;;;-146.41;100.00;57768.22;4999027;28;20472;-71
2022/06/03 11:47:11;;;;;;;2.75;0.88;;;31.00;85.40;;;-146.41;100.00;57768.22;4992587;28;20488;-71
2022/06/03 11:49:38;;;;;;;3.55;0.90;;;31.10;84.10;;;-146.41;100.00;57768.22;4993078;28;20561;-71
2022/06/03 11:52:08;;;;;;;2.10;0.98;;;30.70;84.40;;;-146.41;100.00;57768.22;5009100;28;20140;-71
2022/06/03 11:54:37;;;;;;;4.18;0.80;;;29.90;84.00;;;-146.41;100.00;57768.22;4968156;28;20131;-71
2022/06/03 11:57:05;;;;;;;2.65;1.00;;;29.90;85.60;;;-146.41;100.00;57768.22;4991541;28;20052;-72